Time;durP1;ratioP1;P1;durP2;ratioP2;P2;SDS_P1;SDS_P2;PMS_P1;PMS_P2;Temp;Humidity;BMP_temperature;BMP_pressure;BME280_temperature;BME280_humidity;BME280_pressure;Samples;Min_cycle;Max_cycle;Signal;HPM_P1;HPM_P2
2024/04/17 00:01:31;;;;;;;1999.90;999.90;;;9.90;99.90;;;;;;5523932;26;19989;-72
2024/04/17 00:03:57;;;;;;;1999.90;999.90;;;10.00;99.90;;;;;;5523152;26;20007;-68
2024/04/17 00:06:23;;;;;;;1999.90;999.90;;;10.00;99.90;;;;;;5523028;26;20001;-67
2024/04/17 00:08:49;;;;;;;1999.90;999.90;;;9.90;99.90;;;;;;5523544;26;19994;-67
2024/04/17 00:11:15;;;;;;;1999.90;999.90;;;9.90;99.90;;;;;;5524128;26;20025;-67
2024/04/17 00:13:40;;;;;;;1999.90;999.90;;;9.90;99.90;;;;;;5523492;26;20000;-72
2024/04/17 00:16:06;;;;;;;1999.90;999.90;;;9.90;99.90;;;;;;5523872;26;19993;-72
2024/04/17 00:18:32;;;;;;;1999.90;999.90;;;9.90;99.90;;;;;;5523541;26;20029;-72
2024/04/17 00:20:58;;;;;;;1999.90;999.90;;;9.90;99.90;;;;;;5523451;26;19990;-68
2024/04/17 00:23:25;;;;;;;1999.90;999.90;;;9.90;99.90;;;;;;5523167;26;19998;-67
2024/04/17 00:25:51;;;;;;;1999.90;999.90;;;9.90;99.90;;;;;;5522899;26;19990;-67
2024/04/17 00:28:17;;;;;;;1999.90;999.90;;;9.90;99.90;;;;;;5522096;26;20002;-73
2024/04/17 00:30:42;;;;;;;1999.90;999.90;;;9.80;99.90;;;;;;5522995;26;20008;-67
2024/04/17 00:33:08;;;;;;;1999.90;999.90;;;9.80;99.90;;;;;;5522987;26;19993;-72
2024/04/17 00:35:34;;;;;;;1999.90;999.90;;;9.80;99.90;;;;;;5523157;26;19993;-72
2024/04/17 00:37:59;;;;;;;1999.90;999.90;;;9.80;99.90;;;;;;5522609;26;19994;-67
2024/04/17 00:40:25;;;;;;;1999.90;999.90;;;9.80;99.90;;;;;;5523110;26;19990;-67
2024/04/17 00:42:52;;;;;;;1999.90;999.90;;;9.80;99.90;;;;;;5523304;26;20317;-67
2024/04/17 00:45:18;;;;;;;1999.90;999.90;;;9.80;99.90;;;;;;5522847;26;20009;-67
2024/04/17 00:47:43;;;;;;;1999.90;999.90;;;9.70;99.90;;;;;;5522952;26;20439;-72
2024/04/17 00:50:11;;;;;;;1999.90;999.90;;;9.70;99.90;;;;;;5522744;26;20007;-67
2024/04/17 00:52:37;;;;;;;1999.90;999.90;;;9.70;99.90;;;;;;5522711;26;19997;-67
2024/04/17 00:55:04;;;;;;;1999.90;999.90;;;9.70;99.90;;;;;;5522882;26;20344;-72
2024/04/17 00:57:31;;;;;;;1999.90;999.90;;;9.60;99.90;;;;;;5521236;26;20337;-67
2024/04/17 00:59:57;;;;;;;1999.90;999.90;;;9.60;99.90;;;;;;5525975;26;19994;-68
2024/04/17 01:02:23;;;;;;;1999.90;999.90;;;9.60;99.90;;;;;;5526203;26;20073;-68
2024/04/17 01:04:48;;;;;;;1999.90;999.90;;;9.50;99.90;;;;;;5526336;26;19994;-73
2024/04/17 01:07:14;;;;;;;1999.90;999.90;;;9.50;99.90;;;;;;5526444;26;19989;-67
2024/04/17 01:09:40;;;;;;;1999.90;999.90;;;9.40;99.90;;;;;;5526285;26;20073;-72
2024/04/17 01:12:06;;;;;;;1999.90;999.90;;;9.40;99.90;;;;;;5526263;26;19994;-72
2024/04/17 01:14:31;;;;;;;1999.90;999.90;;;9.30;99.90;;;;;;5526658;26;20004;-72
2024/04/17 01:16:57;;;;;;;1999.90;999.90;;;9.20;99.90;;;;;;5526045;26;20004;-72
2024/04/17 01:19:23;;;;;;;1999.90;999.90;;;9.10;99.90;;;;;;5526484;26;20428;-73
2024/04/17 01:21:49;;;;;;;1999.90;999.90;;;9.10;99.90;;;;;;5526449;26;19994;-67
2024/04/17 01:24:15;;;;;;;1999.90;999.90;;;9.00;99.90;;;;;;5526033;26;19997;-67
2024/04/17 01:26:40;;;;;;;1999.90;999.90;;;8.90;99.90;;;;;;5525967;26;20002;-68
2024/04/17 01:29:06;;;;;;;1999.90;999.90;;;8.80;99.90;;;;;;5525984;26;20417;-72
2024/04/17 01:31:31;;;;;;;1999.90;999.90;;;8.80;99.90;;;;;;5526174;26;20428;-73
2024/04/17 01:33:57;;;;;;;1999.90;999.90;;;8.80;99.90;;;;;;5525990;26;19993;-70
2024/04/17 01:36:22;;;;;;;1999.90;999.90;;;8.80;99.90;;;;;;5526003;26;20001;-67
2024/04/17 01:38:48;;;;;;;1999.90;999.90;;;8.70;99.90;;;;;;5525480;26;20299;-67
2024/04/17 01:41:14;;;;;;;1999.90;999.90;;;8.70;99.90;;;;;;5526091;26;19993;-68
2024/04/17 01:43:39;;;;;;;1999.90;999.90;;;8.80;99.90;;;;;;5526265;26;20498;-73
2024/04/17 01:46:05;;;;;;;1999.90;999.90;;;8.80;99.90;;;;;;5526053;26;20001;-72
2024/04/17 01:48:31;;;;;;;1999.90;999.90;;;8.80;99.90;;;;;;5525812;26;19994;-67
2024/04/17 01:50:56;;;;;;;1999.90;999.90;;;8.80;99.90;;;;;;5525613;26;20351;-67
2024/04/17 01:53:22;;;;;;;1999.90;999.90;;;8.80;99.90;;;;;;5525767;26;19994;-67
2024/04/17 01:55:47;;;;;;;1999.90;999.90;;;8.90;99.90;;;;;;5525415;26;20391;-68
2024/04/17 01:58:13;;;;;;;1999.90;999.90;;;8.80;99.90;;;;;;5525479;26;20432;-67
2024/04/17 02:00:39;;;;;;;1999.90;999.90;;;8.90;99.90;;;;;;5525114;26;19993;-68
2024/04/17 02:03:05;;;;;;;1999.90;999.90;;;8.90;99.90;;;;;;5525982;26;19996;-67
2024/04/17 02:05:31;;;;;;;1999.90;999.90;;;8.80;99.90;;;;;;5525622;26;20006;-67
2024/04/17 02:07:56;;;;;;;1999.90;999.90;;;8.80;99.90;;;;;;5525567;26;20028;-68
2024/04/17 02:10:22;;;;;;;1999.90;999.90;;;8.80;99.90;;;;;;5525086;26;20000;-67
2024/04/17 02:12:48;;;;;;;1999.90;999.90;;;8.80;99.90;;;;;;5525375;26;20148;-72
2024/04/17 02:15:14;;;;;;;1999.90;999.90;;;8.80;99.90;;;;;;5525866;26;20000;-72
2024/04/17 02:17:40;;;;;;;1999.90;999.90;;;8.80;99.90;;;;;;5525588;26;20004;-67
2024/04/17 02:20:06;;;;;;;1999.90;999.90;;;8.70;99.90;;;;;;5492701;26;20009;-68
2024/04/17 02:22:32;;;;;;;1999.90;999.90;;;8.60;99.90;;;;;;5485131;26;20402;-72
2024/04/17 02:24:58;;;;;;;1999.90;999.90;;;8.50;99.90;;;;;;5488741;26;20141;-67
2024/04/17 02:27:24;;;;;;;1999.90;999.90;;;8.50;99.90;;;;;;5456289;26;20103;-67
2024/04/17 02:29:51;;;;;;;1999.90;999.90;;;8.40;99.90;;;;;;5506224;26;20178;-67
2024/04/17 02:32:17;;;;;;;1999.90;999.90;;;8.30;99.90;;;;;;5525250;25;19994;-72
2024/04/17 02:34:42;;;;;;;1999.90;999.90;;;8.30;99.90;;;;;;5525309;25;20008;-67
2024/04/17 02:37:08;;;;;;;1999.90;999.90;;;8.30;99.90;;;;;;5525093;26;20099;-72
2024/04/17 02:39:34;;;;;;;1999.90;999.90;;;8.20;99.90;;;;;;5523687;26;20002;-73
2024/04/17 02:41:59;;;;;;;1999.90;999.90;;;8.20;99.90;;;;;;5524857;26;19989;-67
2024/04/17 02:44:25;;;;;;;1999.90;999.90;;;8.20;99.90;;;;;;5542525;25;20081;-67
2024/04/17 02:46:50;;;;;;;1999.90;999.90;;;8.10;99.90;;;;;;5562415;25;19988;-67
2024/04/17 02:49:16;;;;;;;1999.90;999.90;;;8.10;99.90;;;;;;5562396;25;19996;-73
2024/04/17 02:51:42;;;;;;;1999.90;999.90;;;8.10;99.90;;;;;;5562250;25;20457;-72
2024/04/17 02:54:08;;;;;;;1999.90;999.90;;;8.00;99.90;;;;;;5562350;25;20018;-67
2024/04/17 02:56:34;;;;;;;1999.90;999.90;;;8.00;99.90;;;;;;5542819;25;19994;-72
2024/04/17 02:58:59;;;;;;;1999.90;999.90;;;8.00;99.90;;;;;;5524553;26;19993;-68
2024/04/17 03:01:25;;;;;;;1999.90;999.90;;;8.00;99.90;;;;;;5524391;26;19993;-72
2024/04/17 03:03:50;;;;;;;1999.90;999.90;;;8.00;99.90;;;;;;5491862;26;20004;-72
2024/04/17 03:06:16;;;;;;;1999.90;999.90;;;7.90;99.90;;;;;;5524515;26;20421;-67
2024/04/17 03:08:42;;;;;;;1999.90;999.90;;;7.90;99.90;;;;;;5524614;26;19993;-72
2024/04/17 03:11:07;;;;;;;1999.90;999.90;;;7.90;99.90;;;;;;5524610;26;20007;-73
2024/04/17 03:13:33;;;;;;;1999.90;999.90;;;7.90;99.90;;;;;;5524747;26;19997;-67
2024/04/17 03:16:02;;;;;;;1999.90;999.90;;;7.80;99.90;;;;;;5524443;26;20069;-72
2024/04/17 03:18:28;;;;;;;1999.90;999.90;;;7.80;99.90;;;;;;5524954;26;20404;-67
2024/04/17 03:21:01;;;;;;;1999.90;999.90;;;7.80;99.90;;;;;;5522906;26;19997;-68
2024/04/17 03:23:27;;;;;;;1999.90;999.90;;;7.80;99.90;;;;;;5524711;26;19997;-67
2024/04/17 03:25:55;;;;;;;1999.90;999.90;;;7.80;99.90;;;;;;5524544;26;20481;-67
2024/04/17 03:28:21;;;;;;;1999.90;999.90;;;7.80;99.90;;;;;;5524316;26;19997;-72
2024/04/17 03:30:46;;;;;;;1999.90;999.90;;;7.80;99.90;;;;;;5556929;25;19993;-72
2024/04/17 03:33:12;;;;;;;1999.90;999.90;;;7.80;99.90;;;;;;5561859;25;20087;-67
2024/04/17 03:35:37;;;;;;;1999.90;999.90;;;7.70;99.90;;;;;;5561697;25;19999;-67
2024/04/17 03:38:03;;;;;;;1999.90;999.90;;;7.80;99.90;;;;;;5560944;25;20523;-67
2024/04/17 03:40:29;;;;;;;1999.90;999.90;;;7.80;99.90;;;;;;5528561;25;19996;-67
2024/04/17 03:42:56;;;;;;;1999.90;999.90;;;7.80;99.90;;;;;;5561260;25;19996;-67
2024/04/17 03:45:21;;;;;;;1999.90;999.90;;;7.80;99.90;;;;;;5528699;25;20074;-72
2024/04/17 03:47:47;;;;;;;1999.90;999.90;;;7.80;99.90;;;;;;5523856;26;19994;-67
2024/04/17 03:50:13;;;;;;;1999.90;999.90;;;7.80;99.90;;;;;;5524244;25;19998;-67
2024/04/17 03:52:39;;;;;;;1999.90;999.90;;;7.80;99.90;;;;;;5523916;26;20000;-68
2024/04/17 03:55:04;;;;;;;1999.90;999.90;;;7.80;99.90;;;;;;5523689;26;20069;-72
2024/04/17 03:57:30;;;;;;;1999.90;999.90;;;7.80;99.90;;;;;;5522508;26;20012;-67
2024/04/17 03:59:56;;;;;;;1999.90;999.90;;;7.80;99.90;;;;;;5523515;26;20433;-68
2024/04/17 04:02:22;;;;;;;1999.90;999.90;;;7.90;99.90;;;;;;5523588;26;20447;-72
2024/04/17 04:04:47;;;;;;;1999.90;999.90;;;7.90;99.90;;;;;;5523441;26;19990;-67
2024/04/17 04:07:13;;;;;;;1999.90;999.90;;;7.90;99.90;;;;;;5523645;26;20066;-72
2024/04/17 04:09:39;;;;;;;1999.90;999.90;;;7.90;99.90;;;;;;5523560;26;19997;-72
2024/04/17 04:12:05;;;;;;;1999.90;999.90;;;7.90;99.90;;;;;;5523720;26;19989;-67
2024/04/17 04:14:31;;;;;;;1999.90;999.90;;;7.80;99.90;;;;;;5523348;26;19993;-67
2024/04/17 04:16:56;;;;;;;1999.90;999.90;;;7.80;99.90;;;;;;5523840;26;19994;-72
2024/04/17 04:19:22;;;;;;;1999.90;999.90;;;7.80;99.90;;;;;;5523408;26;19998;-67
2024/04/17 04:21:48;;;;;;;1999.90;999.90;;;7.80;99.90;;;;;;5523388;26;20068;-67
2024/04/17 04:24:13;;;;;;;1999.90;999.90;;;7.80;99.90;;;;;;5523565;26;20073;-73
2024/04/17 04:26:39;;;;;;;1999.90;999.90;;;7.80;99.90;;;;;;5523459;26;20005;-68
2024/04/17 04:29:05;;;;;;;1999.90;999.90;;;7.80;99.90;;;;;;5529697;25;20336;-72
2024/04/17 04:31:31;;;;;;;1999.90;999.90;;;7.80;99.90;;;;;;5560964;25;20007;-67
2024/04/17 04:33:56;;;;;;;1999.90;999.90;;;7.80;99.90;;;;;;5563907;25;19992;-72
2024/04/17 04:36:22;;;;;;;1999.90;999.90;;;7.80;99.90;;;;;;5564162;25;20077;-72
2024/04/17 04:38:48;;;;;;;1999.90;999.90;;;7.80;99.90;;;;;;5564004;25;20424;-67
2024/04/17 04:41:13;;;;;;;1999.90;999.90;;;7.70;99.90;;;;;;5564144;25;20001;-67
2024/04/17 04:43:39;;;;;;;1999.90;999.90;;;7.70;99.90;;;;;;5557592;25;20009;-72
2024/04/17 04:46:04;;;;;;;1999.90;999.90;;;7.70;99.90;;;;;;5524911;26;19993;-67
2024/04/17 04:48:30;;;;;;;1999.90;999.90;;;7.70;99.90;;;;;;5526822;26;19999;-67
2024/04/17 04:50:56;;;;;;;1999.90;999.90;;;7.70;99.90;;;;;;5526501;26;20161;-67
2024/04/17 04:53:21;;;;;;;1999.90;999.90;;;7.70;99.90;;;;;;5525030;25;20013;-67
2024/04/17 04:56:02;;;;;;;1999.90;999.90;;;7.70;99.90;;;;;;5525537;26;20094;-67
2024/04/17 04:58:28;;;;;;;1999.90;999.90;;;7.70;99.90;;;;;;5526483;26;20000;-72
2024/04/17 05:00:54;;;;;;;1999.90;999.90;;;7.70;99.90;;;;;;5526164;26;20001;-73
2024/04/17 05:03:21;;;;;;;1999.90;999.90;;;7.70;99.90;;;;;;5526607;26;20021;-72
2024/04/17 05:05:47;;;;;;;1999.90;999.90;;;7.60;99.90;;;;;;5526268;26;20042;-67
2024/04/17 05:08:12;;;;;;;1999.90;999.90;;;7.70;99.90;;;;;;5526214;26;20397;-72
2024/04/17 05:10:38;;;;;;;1999.90;999.90;;;7.70;99.90;;;;;;5526394;26;19998;-67
2024/04/17 05:13:04;;;;;;;1999.90;999.90;;;7.60;99.90;;;;;;5526251;26;20009;-68
2024/04/17 05:15:29;;;;;;;1999.90;999.90;;;7.60;99.90;;;;;;5526419;26;20000;-73
2024/04/17 05:17:55;;;;;;;1999.90;999.90;;;7.60;99.90;;;;;;5525767;26;19997;-68
2024/04/17 05:20:22;;;;;;;1999.90;999.90;;;7.60;99.90;;;;;;5525998;26;20385;-72
2024/04/17 05:22:47;;;;;;;1999.90;999.90;;;7.60;99.90;;;;;;5526337;26;20009;-68
2024/04/17 05:25:15;;;;;;;1999.90;999.90;;;7.60;99.90;;;;;;5526154;26;19993;-72
2024/04/17 05:27:41;;;;;;;1999.90;999.90;;;7.60;99.90;;;;;;5523146;26;20009;-72
2024/04/17 05:30:09;;;;;;;1999.90;999.90;;;7.60;99.90;;;;;;5521680;26;20309;-68
2024/04/17 05:32:34;;;;;;;1999.90;999.90;;;7.60;99.90;;;;;;5523223;26;20008;-72
2024/04/17 05:35:00;;;;;;;1999.90;999.90;;;7.60;99.90;;;;;;5524613;26;19993;-72
2024/04/17 05:37:26;;;;;;;1999.90;999.90;;;7.60;99.90;;;;;;5524229;26;19997;-67
2024/04/17 05:39:51;;;;;;;1999.90;999.90;;;7.60;99.90;;;;;;5525017;26;20005;-72
2024/04/17 05:42:17;;;;;;;1999.90;999.90;;;7.60;99.90;;;;;;5524814;26;20008;-67
2024/04/17 05:44:43;;;;;;;1999.90;999.90;;;7.60;99.90;;;;;;5523846;26;19998;-68
2024/04/17 05:47:08;;;;;;;1999.90;999.90;;;7.70;99.90;;;;;;5516679;26;20012;-72
2024/04/17 05:49:34;;;;;;;1999.90;999.90;;;7.70;99.90;;;;;;5525043;26;20001;-67
2024/04/17 05:51:59;;;;;;;1999.90;999.90;;;7.70;99.90;;;;;;5524962;26;20002;-73
2024/04/17 05:54:25;;;;;;;1999.90;999.90;;;7.80;99.90;;;;;;5525165;26;20009;-72
2024/04/17 05:56:51;;;;;;;1999.90;999.90;;;7.80;99.90;;;;;;5524322;26;20452;-67
2024/04/17 05:59:16;;;;;;;1999.90;999.90;;;7.80;99.90;;;;;;5524622;26;20001;-67
2024/04/17 06:01:42;;;;;;;1999.90;999.90;;;7.90;99.90;;;;;;5525097;26;20293;-72
2024/04/17 06:04:08;;;;;;;1999.90;999.90;;;7.90;99.90;;;;;;5524620;26;20005;-67
2024/04/17 06:06:33;;;;;;;1999.90;999.90;;;8.00;99.90;;;;;;5522578;26;20005;-72
2024/04/17 06:08:59;;;;;;;1999.90;999.90;;;8.00;99.90;;;;;;5521760;26;20012;-72
2024/04/17 06:11:25;;;;;;;1999.90;999.90;;;8.10;99.90;;;;;;5510425;25;19994;-67
2024/04/17 06:13:51;;;;;;;1999.90;999.90;;;8.20;99.90;;;;;;5515798;25;20346;-67
2024/04/17 06:16:17;;;;;;;1999.90;999.90;;;8.20;99.90;;;;;;5524260;26;20001;-73
2024/04/17 06:18:42;;;;;;;1999.90;999.90;;;8.30;99.90;;;;;;5523380;26;19997;-72
2024/04/17 06:21:08;;;;;;;1999.90;999.90;;;8.30;99.90;;;;;;5524300;26;20305;-72
2024/04/17 06:23:33;;;;;;;1999.90;999.90;;;8.40;99.90;;;;;;5523808;26;20643;-73
2024/04/17 06:25:59;;;;;;;1999.90;999.90;;;8.40;99.90;;;;;;5523896;26;20005;-68
2024/04/17 06:28:25;;;;;;;1999.90;999.90;;;8.50;99.90;;;;;;5523436;26;20001;-68
2024/04/17 06:30:51;;;;;;;1999.90;999.90;;;8.60;99.90;;;;;;5546942;25;20002;-73
2024/04/17 06:33:16;;;;;;;1999.90;999.90;;;8.60;99.90;;;;;;5523011;26;20005;-72
2024/04/17 06:35:42;;;;;;;1999.90;999.90;;;8.70;99.90;;;;;;5523471;26;20010;-67
2024/04/17 06:38:08;;;;;;;1999.90;999.90;;;8.80;99.90;;;;;;5522917;26;20303;-67
2024/04/17 06:40:34;;;;;;;1999.90;999.90;;;8.80;99.90;;;;;;5520951;25;20008;-72
2024/04/17 06:43:00;;;;;;;1999.90;999.90;;;8.90;99.90;;;;;;5524912;25;20015;-68
2024/04/17 06:45:25;;;;;;;1999.90;999.90;;;9.00;99.90;;;;;;5508201;25;20072;-73
2024/04/17 06:47:51;;;;;;;1999.90;999.90;;;9.10;99.90;;;;;;5523019;25;19998;-72
2024/04/17 06:50:17;;;;;;;1999.90;999.90;;;9.10;99.90;;;;;;5522686;26;19997;-67
2024/04/17 06:52:42;;;;;;;1999.90;999.90;;;9.20;99.90;;;;;;5522907;26;20076;-67
2024/04/17 06:55:08;;;;;;;1999.90;999.90;;;9.20;99.90;;;;;;5536273;25;19997;-72
2024/04/17 06:57:33;;;;;;;1999.90;999.90;;;9.30;99.90;;;;;;5520772;26;20001;-71
2024/04/17 06:59:59;;;;;;;1999.90;999.90;;;9.40;99.90;;;;;;5522451;26;19994;-67
2024/04/17 07:02:25;;;;;;;1999.90;999.90;;;9.50;99.90;;;;;;5487331;26;20007;-67
2024/04/17 07:04:50;;;;;;;1999.90;999.90;;;9.60;99.90;;;;;;5534416;25;20006;-67
2024/04/17 07:07:16;;;;;;;1999.90;999.90;;;9.70;99.90;;;;;;5521817;26;20001;-67
2024/04/17 07:09:43;;;;;;;1999.90;999.90;;;9.70;99.90;;;;;;5504841;26;19998;-66
2024/04/17 07:12:09;;;;;;;1999.90;999.90;;;9.80;99.90;;;;;;5517238;26;20012;-67
2024/04/17 07:14:35;;;;;;;1999.90;999.90;;;10.00;99.90;;;;;;5522556;26;20009;-67
2024/04/17 07:17:01;;;;;;;1999.90;999.90;;;10.10;99.90;;;;;;5522308;26;20463;-67
2024/04/17 07:19:26;;;;;;;1999.90;999.90;;;10.30;99.90;;;;;;5521924;26;20041;-71
2024/04/17 07:21:52;;;;;;;1999.90;999.90;;;10.30;99.90;;;;;;5522683;26;20072;-68
2024/04/17 07:24:18;;;;;;;1999.90;999.90;;;10.30;99.90;;;;;;5521582;26;20443;-68
2024/04/17 07:26:44;;;;;;;1999.90;999.90;;;10.50;99.90;;;;;;5522317;26;20001;-72
2024/04/17 07:29:10;;;;;;;1999.90;999.90;;;10.70;99.90;;;;;;5496954;25;20005;-69
2024/04/17 07:31:36;;;;;;;1999.90;999.90;;;10.80;99.90;;;;;;5542074;25;20448;-68
2024/04/17 07:34:01;;;;;;;1999.90;999.90;;;10.80;99.90;;;;;;5522281;26;20069;-70
2024/04/17 07:36:27;;;;;;;1999.90;999.90;;;10.90;99.90;;;;;;5521538;26;20081;-67
2024/04/17 07:38:52;;;;;;;1999.90;999.90;;;11.00;99.90;;;;;;5521666;25;20025;-68
2024/04/17 07:41:18;;;;;;;1999.90;999.90;;;11.30;99.90;;;;;;5522021;26;20062;-72
2024/04/17 07:43:44;;;;;;;1999.90;999.90;;;11.40;99.90;;;;;;5507290;25;19997;-68
2024/04/17 07:46:10;;;;;;;1999.90;999.90;;;11.70;99.90;;;;;;5522292;26;20001;-71
2024/04/17 07:48:36;;;;;;;1999.90;999.90;;;11.70;99.90;;;;;;5521162;26;20099;-68
2024/04/17 07:51:02;;;;;;;1999.90;999.90;;;11.80;99.90;;;;;;5522418;26;19990;-72
2024/04/17 07:53:28;;;;;;;1999.90;999.90;;;12.00;99.90;;;;;;5521846;26;20005;-73
2024/04/17 07:55:53;;;;;;;1999.90;999.90;;;12.20;99.90;;;;;;5521437;26;20073;-69
2024/04/17 07:58:19;;;;;;;1999.90;999.90;;;12.40;99.90;;;;;;5522438;26;19997;-68
2024/04/17 08:00:45;;;;;;;1999.90;999.90;;;12.60;99.90;;;;;;5521735;26;19998;-68
2024/04/17 08:03:11;;;;;;;1999.90;999.90;;;13.00;99.90;;;;;;5520849;26;20008;-73
2024/04/17 08:05:37;;;;;;;1999.90;999.90;;;13.80;99.90;;;;;;5522081;26;20423;-69
2024/04/17 08:08:04;;;;;;;1999.90;999.90;;;16.80;99.90;;;;;;5522943;26;20000;-69
2024/04/17 08:10:29;;;;;;;1999.90;999.90;;;19.50;99.90;;;;;;5525107;26;20300;-69
2024/04/17 08:13:07;;;;;;;1999.90;999.90;;;20.50;99.90;;;;;;5524520;26;20001;-74
2024/04/17 08:15:34;;;;;;;1999.90;999.90;;;21.80;99.90;;;;;;5525263;26;19990;-70
2024/04/17 08:18:00;;;;;;;1999.90;999.90;;;23.20;99.90;;;;;;5524982;26;20310;-74
2024/04/17 08:20:25;;;;;;;1999.90;999.90;;;23.10;99.90;;;;;;5525841;26;20027;-67
2024/04/17 08:22:51;;;;;;;1999.90;999.90;;;22.90;99.90;;;;;;5524698;26;20016;-73
2024/04/17 08:25:16;;;;;;;1999.90;999.90;;;23.20;99.90;;;;;;5524915;26;20417;-68
2024/04/17 08:27:42;;;;;;;1999.90;999.90;;;24.30;99.90;;;;;;5490852;26;19997;-68
2024/04/17 08:30:08;;;;;;;1999.90;999.90;;;23.90;99.90;;;;;;5519913;25;20020;-68
2024/04/17 08:32:33;;;;;;;1999.90;999.90;;;24.60;99.90;;;;;;5544461;25;20309;-73
2024/04/17 08:34:59;;;;;;;1999.90;999.90;;;25.20;99.90;;;;;;5554081;25;20013;-68
2024/04/17 08:37:25;;;;;;;1999.90;999.90;;;25.70;99.90;;;;;;5491576;26;19993;-68
2024/04/17 08:39:50;;;;;;;1999.90;999.90;;;26.10;99.90;;;;;;5524893;26;20016;-67
2024/04/17 08:42:23;;;;;;;1999.90;999.90;;;26.50;99.90;;;;;;5522557;26;20009;-68
2024/04/17 08:44:49;;;;;;;1999.90;999.90;;;26.00;99.90;;;;;;5522604;26;19997;-73
2024/04/17 08:47:16;;;;;;;1999.90;999.90;;;26.00;99.90;;;;;;5522558;26;20025;-68
2024/04/17 08:49:42;;;;;;;1999.90;999.90;;;26.30;99.90;;;;;;5522877;25;19998;-68
2024/04/17 08:52:11;;;;;;;1999.90;999.90;;;25.90;99.90;;;;;;5523127;26;20017;-69
2024/04/17 08:54:40;;;;;;;1999.90;999.90;;;25.60;99.90;;;;;;5522245;26;20012;-68
2024/04/17 08:57:07;;;;;;;1999.90;999.90;;;25.70;99.90;;;;;;5489262;26;20013;-68
2024/04/17 08:59:33;;;;;;;1999.90;999.90;;;25.40;99.90;;;;;;5520933;26;19997;-72
2024/04/17 09:02:01;;;;;;;1999.90;999.90;;;25.00;99.90;;;;;;5487625;26;20023;-68
2024/04/17 09:04:28;;;;;;;1999.90;999.90;;;25.40;99.90;;;;;;5516690;26;20054;-74
2024/04/17 09:06:55;;;;;;;1999.90;999.90;;;25.50;99.90;;;;;;5521563;26;19994;-72
2024/04/17 09:09:21;;;;;;;1999.90;999.90;;;25.80;99.90;;;;;;5520700;26;20024;-74
2024/04/17 09:11:48;;;;;;;1999.90;999.90;;;25.60;99.90;;;;;;5522494;26;20048;-72
2024/04/17 09:14:14;;;;;;;1999.90;999.90;;;26.10;99.90;;;;;;5520896;26;20220;-67
2024/04/17 09:16:39;;;;;;;1999.90;999.90;;;26.60;99.90;;;;;;5521344;26;20001;-73
2024/04/17 09:19:08;;;;;;;1999.90;999.90;;;26.70;99.90;;;;;;5520148;26;20010;-69
2024/04/17 09:21:38;;;;;;;1999.90;999.90;;;26.80;99.90;;;;;;5521194;26;20016;-69
2024/04/17 09:24:04;;;;;;;1999.90;999.90;;;26.30;99.90;;;;;;5513661;26;20173;-68
2024/04/17 09:26:30;;;;;;;1999.90;999.90;;;23.20;99.90;;;;;;5520623;26;19998;-69
2024/04/17 09:28:56;;;;;;;1999.90;999.90;;;22.70;99.90;;;;;;5519795;26;19997;-68
2024/04/17 09:31:23;;;;;;;1999.90;999.90;;;22.00;99.90;;;;;;5521266;26;19998;-68
2024/04/17 09:33:50;;;;;;;1999.90;999.90;;;21.70;99.90;;;;;;5520964;26;20078;-72
2024/04/17 09:36:15;;;;;;;1999.90;999.90;;;23.40;99.90;;;;;;5520822;26;20001;-68
2024/04/17 09:38:41;;;;;;;1999.90;999.90;;;24.60;99.90;;;;;;5521831;26;20024;-69
2024/04/17 09:41:09;;;;;;;1999.90;999.90;;;24.90;99.90;;;;;;5520353;26;20012;-69
2024/04/17 09:43:42;;;;;;;1999.90;999.90;;;21.80;99.90;;;;;;5519663;26;20020;-71
2024/04/17 09:46:08;;;;;;;1999.90;999.90;;;19.30;99.90;;;;;;5520798;26;20468;-74
2024/04/17 09:48:41;;;;;;;1999.90;999.90;;;17.90;99.90;;;;;;5522327;26;20441;-74
2024/04/17 09:51:07;;;;;;;;;;;19.90;99.90;;;;;;5523929;26;20001;-71
2024/04/17 09:53:41;;;;;;;1999.90;999.90;;;21.50;99.90;;;;;;5522732;26;19930;-73
2024/04/17 09:56:11;;;;;;;1999.90;999.90;;;19.00;99.90;;;;;;5486893;26;19998;-74
2024/04/17 09:58:39;;;;;;;1999.90;999.90;;;20.10;99.90;;;;;;5522334;26;19997;-75
2024/04/17 10:01:08;;;;;;;1999.90;999.90;;;22.30;99.90;;;;;;5509696;26;20353;-74
2024/04/17 10:03:36;;;;;;;1999.90;999.90;;;22.60;99.90;;;;;;5523594;26;19998;-69
2024/04/17 10:06:04;;;;;;;1999.90;999.90;;;22.30;99.90;;;;;;5523758;26;19997;-70
2024/04/17 10:08:31;;;;;;;1999.90;999.90;;;21.30;99.90;;;;;;5523811;26;20073;-71
2024/04/17 10:10:58;;;;;;;1999.90;999.90;;;21.60;99.90;;;;;;5523811;26;20047;-69
2024/04/17 10:13:24;;;;;;;1999.90;999.90;;;22.00;99.90;;;;;;5524146;26;19993;-74
2024/04/17 10:15:53;;;;;;;1999.90;999.90;;;21.70;99.90;;;;;;5523078;26;20087;-73
2024/04/17 10:18:20;;;;;;;1999.90;999.90;;;18.70;99.90;;;;;;5523460;26;20072;-69
2024/04/17 10:20:46;;;;;;;1999.90;999.90;;;18.50;99.90;;;;;;5523548;26;19989;-70
2024/04/17 10:23:14;;;;;;;1999.90;999.90;;;19.40;99.90;;;;;;5523583;26;19998;-70
2024/04/17 10:25:57;;;;;;;1999.90;999.90;;;18.50;99.90;;;;;;5523065;26;19997;-75
2024/04/17 10:28:24;;;;;;;1999.90;999.90;;;17.40;99.90;;;;;;5522941;26;20073;-68
2024/04/17 10:30:55;;;;;;;1999.90;999.90;;;16.50;99.90;;;;;;5534054;25;20005;-68
2024/04/17 10:33:28;;;;;;;1999.90;999.90;;;15.70;99.90;;;;;;5523110;26;20005;-68
2024/04/17 10:35:55;;;;;;;1999.90;999.90;;;15.00;99.90;;;;;;5522366;26;20073;-68
2024/04/17 10:38:26;;;;;;;1999.90;999.90;;;14.80;99.90;;;;;;5522444;26;20012;-73
2024/04/17 10:40:56;;;;;;;1999.90;999.90;;;16.20;99.90;;;;;;5522884;26;20008;-73
2024/04/17 10:43:26;;;;;;;1999.90;999.90;;;16.30;99.90;;;;;;5509632;26;20001;-68
2024/04/17 10:45:55;;;;;;;1999.90;999.90;;;16.60;99.90;;;;;;5523394;26;20069;-68
2024/04/17 10:48:21;;;;;;;1999.90;999.90;;;16.60;99.90;;;;;;5454538;26;20004;-70
2024/04/17 10:50:46;;;;;;;1999.90;999.90;;;15.60;99.90;;;;;;5505863;26;19993;-74
2024/04/17 10:53:13;;;;;;;1999.90;999.90;;;15.50;99.90;;;;;;5490687;26;20016;-74
2024/04/17 10:55:39;;;;;;;1999.90;999.90;;;15.80;99.90;;;;;;5523390;26;19997;-71
2024/04/17 10:58:05;;;;;;;1999.90;999.90;;;16.10;99.90;;;;;;5518104;26;20012;-70
2024/04/17 11:00:30;;;;;;;1999.90;999.90;;;16.60;99.90;;;;;;5521175;26;20317;-70
2024/04/17 11:02:58;;;;;;;1999.90;999.90;;;16.40;99.90;;;;;;5520991;26;20062;-71
2024/04/17 11:05:26;;;;;;;1999.90;999.90;;;16.30;99.90;;;;;;5520990;26;20001;-75
2024/04/17 11:07:55;;;;;;;1999.90;999.90;;;16.70;99.90;;;;;;5520561;26;19993;-70
2024/04/17 11:10:21;;;;;;;1999.90;999.90;;;17.30;99.90;;;;;;5518953;25;19998;-72
2024/04/17 11:12:46;;;;;;;1999.90;999.90;;;17.60;99.90;;;;;;5518494;25;20339;-68
2024/04/17 11:15:13;;;;;;;1999.90;999.90;;;17.80;99.90;;;;;;5488196;26;20325;-73
2024/04/17 11:17:40;;;;;;;1999.90;999.90;;;17.10;99.90;;;;;;5488610;26;20000;-73
2024/04/17 11:20:08;;;;;;;1999.90;999.90;;;17.30;99.90;;;;;;5518966;26;20440;-72
2024/04/17 11:22:37;;;;;;;1999.90;999.90;;;17.40;99.90;;;;;;5487670;26;20135;-68
2024/04/17 11:25:12;;;;;;;1999.90;999.90;;;17.40;99.90;;;;;;5513569;25;20001;-72
2024/04/17 11:27:38;;;;;;;1999.90;999.90;;;17.70;99.90;;;;;;5520733;25;20428;-72
2024/04/17 11:30:15;;;;;;;1999.90;999.90;;;18.10;99.90;;;;;;5539088;25;19996;-72
2024/04/17 11:32:41;;;;;;;1999.90;999.90;;;17.40;99.90;;;;;;5469069;26;20006;-72
2024/04/17 11:35:14;;;;;;;1999.90;999.90;;;17.00;99.90;;;;;;5516395;25;19999;-69
2024/04/17 11:37:50;;;;;;;1999.90;999.90;;;16.80;99.90;;;;;;5521772;26;20001;-72
2024/04/17 11:40:17;;;;;;;1999.90;999.90;;;16.40;99.90;;;;;;5521407;26;19997;-69
2024/04/17 11:42:42;;;;;;;1999.90;999.90;;;16.20;99.90;;;;;;5520017;26;20058;-72
2024/04/17 11:45:09;;;;;;;1999.90;999.90;;;16.10;99.90;;;;;;5521695;25;20008;-72
2024/04/17 11:47:39;;;;;;;1999.90;999.90;;;16.20;99.90;;;;;;5522155;26;20002;-67
2024/04/17 11:50:11;;;;;;;1999.90;999.90;;;16.50;99.90;;;;;;5521646;26;19989;-67
2024/04/17 11:52:37;;;;;;;1999.90;999.90;;;16.10;99.90;;;;;;5522201;26;19998;-75
2024/04/17 11:55:03;;;;;;;1999.90;999.90;;;15.70;99.90;;;;;;5521982;26;20013;-72
2024/04/17 11:57:29;;;;;;;1999.90;999.90;;;15.40;99.90;;;;;;5521214;26;19998;-74
2024/04/17 11:59:55;;;;;;;1999.90;999.90;;;15.60;99.90;;;;;;5521837;26;20000;-67
2024/04/17 12:02:21;;;;;;;1999.90;999.90;;;15.90;99.90;;;;;;5521270;26;20001;-75